sensor_id;sensor_type;location;lat;lon;timestamp;P1;durP1;ratioP1;P2;durP2;ratioP2
12271;SDS011;6198;51.446;6.698;2022-10-16T00:00:00;5.80;;;4.13;;
12271;SDS011;6198;51.446;6.698;2022-10-16T00:02:26;5.53;;;4.40;;
12271;SDS011;6198;51.446;6.698;2022-10-16T00:04:52;7.00;;;4.53;;
12271;SDS011;6198;51.446;6.698;2022-10-16T00:07:19;11.40;;;5.20;;
12271;SDS011;6198;51.446;6.698;2022-10-16T00:09:45;7.87;;;4.70;;
12271;SDS011;6198;51.446;6.698;2022-10-16T00:12:11;7.70;;;4.60;;
12271;SDS011;6198;51.446;6.698;2022-10-16T00:14:37;8.33;;;4.50;;
12271;SDS011;6198;51.446;6.698;2022-10-16T00:17:05;12.93;;;4.80;;
12271;SDS011;6198;51.446;6.698;2022-10-16T00:19:31;9.33;;;4.50;;
12271;SDS011;6198;51.446;6.698;2022-10-16T00:21:57;7.23;;;5.03;;
12271;SDS011;6198;51.446;6.698;2022-10-16T00:24:23;9.70;;;4.67;;
12271;SDS011;6198;51.446;6.698;2022-10-16T00:26:49;8.57;;;4.77;;
12271;SDS011;6198;51.446;6.698;2022-10-16T00:29:16;8.37;;;4.70;;
12271;SDS011;6198;51.446;6.698;2022-10-16T00:31:41;8.03;;;4.70;;
12271;SDS011;6198;51.446;6.698;2022-10-16T00:34:07;8.80;;;4.77;;
12271;SDS011;6198;51.446;6.698;2022-10-16T00:36:33;7.60;;;4.30;;
12271;SDS011;6198;51.446;6.698;2022-10-16T00:38:59;7.73;;;4.40;;
12271;SDS011;6198;51.446;6.698;2022-10-16T00:41:26;7.67;;;4.43;;
12271;SDS011;6198;51.446;6.698;2022-10-16T00:43:54;10.93;;;4.30;;
12271;SDS011;6198;51.446;6.698;2022-10-16T00:48:51;7.30;;;4.30;;
12271;SDS011;6198;51.446;6.698;2022-10-16T00:51:18;9.57;;;4.10;;
12271;SDS011;6198;51.446;6.698;2022-10-16T00:53:45;6.40;;;3.50;;
12271;SDS011;6198;51.446;6.698;2022-10-16T00:56:11;7.33;;;3.87;;
12271;SDS011;6198;51.446;6.698;2022-10-16T00:58:37;6.27;;;3.77;;
12271;SDS011;6198;51.446;6.698;2022-10-16T01:01:03;4.30;;;3.73;;
12271;SDS011;6198;51.446;6.698;2022-10-16T01:03:33;5.20;;;3.73;;
12271;SDS011;6198;51.446;6.698;2022-10-16T01:11:54;6.03;;;3.40;;
12271;SDS011;6198;51.446;6.698;2022-10-16T01:14:19;9.93;;;3.73;;
12271;SDS011;6198;51.446;6.698;2022-10-16T01:16:55;6.20;;;3.50;;
12271;SDS011;6198;51.446;6.698;2022-10-16T01:19:30;5.10;;;3.37;;
12271;SDS011;6198;51.446;6.698;2022-10-16T01:22:00;4.10;;;3.07;;
12271;SDS011;6198;51.446;6.698;2022-10-16T01:29:29;12.50;;;3.40;;
12271;SDS011;6198;51.446;6.698;2022-10-16T01:32:00;6.33;;;3.50;;
12271;SDS011;6198;51.446;6.698;2022-10-16T01:34:46;7.27;;;3.60;;
12271;SDS011;6198;51.446;6.698;2022-10-16T01:37:13;14.60;;;4.07;;
12271;SDS011;6198;51.446;6.698;2022-10-16T01:39:41;5.23;;;3.53;;
12271;SDS011;6198;51.446;6.698;2022-10-16T01:42:13;4.57;;;3.30;;
12271;SDS011;6198;51.446;6.698;2022-10-16T01:44:40;8.93;;;3.80;;
12271;SDS011;6198;51.446;6.698;2022-10-16T01:47:07;7.67;;;3.67;;
12271;SDS011;6198;51.446;6.698;2022-10-16T01:49:35;7.37;;;3.67;;
12271;SDS011;6198;51.446;6.698;2022-10-16T01:52:02;5.47;;;3.50;;
12271;SDS011;6198;51.446;6.698;2022-10-16T01:54:30;13.80;;;4.23;;
12271;SDS011;6198;51.446;6.698;2022-10-16T01:56:56;10.93;;;3.40;;
12271;SDS011;6198;51.446;6.698;2022-10-16T01:59:23;5.70;;;3.23;;
12271;SDS011;6198;51.446;6.698;2022-10-16T02:02:00;5.57;;;3.30;;
12271;SDS011;6198;51.446;6.698;2022-10-16T02:04:28;6.10;;;3.40;;
12271;SDS011;6198;51.446;6.698;2022-10-16T02:06:55;7.23;;;2.60;;
12271;SDS011;6198;51.446;6.698;2022-10-16T02:09:21;5.63;;;3.07;;
12271;SDS011;6198;51.446;6.698;2022-10-16T02:11:47;5.10;;;2.83;;
12271;SDS011;6198;51.446;6.698;2022-10-16T02:14:14;3.03;;;2.40;;
12271;SDS011;6198;51.446;6.698;2022-10-16T02:16:41;7.03;;;2.67;;
12271;SDS011;6198;51.446;6.698;2022-10-16T02:19:07;7.60;;;2.90;;
12271;SDS011;6198;51.446;6.698;2022-10-16T02:21:48;6.23;;;2.40;;
12271;SDS011;6198;51.446;6.698;2022-10-16T02:29:26;4.43;;;2.77;;
12271;SDS011;6198;51.446;6.698;2022-10-16T02:31:54;6.10;;;2.40;;
12271;SDS011;6198;51.446;6.698;2022-10-16T02:34:21;6.60;;;3.10;;
12271;SDS011;6198;51.446;6.698;2022-10-16T02:36:48;4.73;;;2.80;;
12271;SDS011;6198;51.446;6.698;2022-10-16T02:39:14;10.27;;;4.40;;
12271;SDS011;6198;51.446;6.698;2022-10-16T02:41:41;6.37;;;3.47;;
12271;SDS011;6198;51.446;6.698;2022-10-16T02:44:08;6.43;;;4.47;;
12271;SDS011;6198;51.446;6.698;2022-10-16T02:46:34;6.50;;;5.37;;
12271;SDS011;6198;51.446;6.698;2022-10-16T02:48:59;7.17;;;5.37;;
12271;SDS011;6198;51.446;6.698;2022-10-16T02:51:25;6.13;;;5.53;;
12271;SDS011;6198;51.446;6.698;2022-10-16T02:53:51;9.67;;;5.47;;
12271;SDS011;6198;51.446;6.698;2022-10-16T02:56:17;7.33;;;5.37;;
12271;SDS011;6198;51.446;6.698;2022-10-16T02:58:43;12.00;;;5.47;;
12271;SDS011;6198;51.446;6.698;2022-10-16T03:01:09;9.40;;;5.40;;
12271;SDS011;6198;51.446;6.698;2022-10-16T03:03:37;8.47;;;4.90;;
12271;SDS011;6198;51.446;6.698;2022-10-16T03:06:03;7.83;;;4.43;;
12271;SDS011;6198;51.446;6.698;2022-10-16T03:08:29;8.30;;;4.47;;
12271;SDS011;6198;51.446;6.698;2022-10-16T03:10:56;7.27;;;3.73;;
12271;SDS011;6198;51.446;6.698;2022-10-16T03:13:22;5.27;;;3.80;;
12271;SDS011;6198;51.446;6.698;2022-10-16T03:15:48;6.83;;;3.30;;
12271;SDS011;6198;51.446;6.698;2022-10-16T03:18:14;5.80;;;3.27;;
12271;SDS011;6198;51.446;6.698;2022-10-16T03:20:40;3.13;;;2.80;;
12271;SDS011;6198;51.446;6.698;2022-10-16T03:23:06;4.67;;;3.30;;
12271;SDS011;6198;51.446;6.698;2022-10-16T03:25:33;6.43;;;2.77;;
12271;SDS011;6198;51.446;6.698;2022-10-16T03:27:59;3.80;;;2.73;;
12271;SDS011;6198;51.446;6.698;2022-10-16T03:30:25;3.93;;;2.73;;
12271;SDS011;6198;51.446;6.698;2022-10-16T03:32:51;3.20;;;2.60;;
12271;SDS011;6198;51.446;6.698;2022-10-16T03:35:19;4.27;;;2.50;;
12271;SDS011;6198;51.446;6.698;2022-10-16T03:37:45;3.93;;;2.37;;
12271;SDS011;6198;51.446;6.698;2022-10-16T03:40:11;3.70;;;2.10;;
12271;SDS011;6198;51.446;6.698;2022-10-16T03:42:37;4.93;;;2.20;;
12271;SDS011;6198;51.446;6.698;2022-10-16T03:45:03;4.50;;;2.30;;
12271;SDS011;6198;51.446;6.698;2022-10-16T03:47:29;3.83;;;2.20;;
12271;SDS011;6198;51.446;6.698;2022-10-16T03:49:57;5.00;;;1.93;;
12271;SDS011;6198;51.446;6.698;2022-10-16T03:52:23;2.20;;;1.83;;
12271;SDS011;6198;51.446;6.698;2022-10-16T03:54:50;4.30;;;1.90;;
12271;SDS011;6198;51.446;6.698;2022-10-16T03:57:16;2.37;;;2.00;;
12271;SDS011;6198;51.446;6.698;2022-10-16T03:59:42;2.53;;;2.00;;
12271;SDS011;6198;51.446;6.698;2022-10-16T04:02:08;2.67;;;1.90;;
12271;SDS011;6198;51.446;6.698;2022-10-16T04:04:34;3.00;;;1.73;;
12271;SDS011;6198;51.446;6.698;2022-10-16T04:07:00;2.73;;;1.80;;
12271;SDS011;6198;51.446;6.698;2022-10-16T04:09:26;3.23;;;1.90;;
12271;SDS011;6198;51.446;6.698;2022-10-16T04:11:52;5.97;;;2.10;;
12271;SDS011;6198;51.446;6.698;2022-10-16T04:14:18;4.17;;;1.87;;
12271;SDS011;6198;51.446;6.698;2022-10-16T04:16:44;2.20;;;2.00;;
12271;SDS011;6198;51.446;6.698;2022-10-16T04:19:10;2.10;;;1.90;;
12271;SDS011;6198;51.446;6.698;2022-10-16T04:21:36;7.70;;;2.00;;
12271;SDS011;6198;51.446;6.698;2022-10-16T04:24:02;3.00;;;1.60;;
12271;SDS011;6198;51.446;6.698;2022-10-16T04:26:28;2.97;;;2.27;;
12271;SDS011;6198;51.446;6.698;2022-10-16T04:28:54;5.53;;;1.80;;
12271;SDS011;6198;51.446;6.698;2022-10-16T04:31:20;4.13;;;1.90;;
12271;SDS011;6198;51.446;6.698;2022-10-16T04:33:46;3.57;;;1.70;;
12271;SDS011;6198;51.446;6.698;2022-10-16T04:36:12;1.67;;;1.57;;
12271;SDS011;6198;51.446;6.698;2022-10-16T04:38:38;2.27;;;1.90;;
12271;SDS011;6198;51.446;6.698;2022-10-16T04:41:05;3.40;;;1.80;;
12271;SDS011;6198;51.446;6.698;2022-10-16T04:43:31;3.60;;;1.70;;
12271;SDS011;6198;51.446;6.698;2022-10-16T04:45:57;5.30;;;1.80;;
12271;SDS011;6198;51.446;6.698;2022-10-16T04:48:23;6.70;;;2.13;;
12271;SDS011;6198;51.446;6.698;2022-10-16T04:50:49;2.13;;;1.90;;
12271;SDS011;6198;51.446;6.698;2022-10-16T04:53:15;5.90;;;1.60;;
12271;SDS011;6198;51.446;6.698;2022-10-16T04:55:41;1.83;;;1.70;;
12271;SDS011;6198;51.446;6.698;2022-10-16T04:58:08;4.53;;;1.80;;
12271;SDS011;6198;51.446;6.698;2022-10-16T05:00:34;2.10;;;1.90;;
12271;SDS011;6198;51.446;6.698;2022-10-16T05:03:00;4.07;;;2.00;;
12271;SDS011;6198;51.446;6.698;2022-10-16T05:05:27;3.67;;;1.93;;
12271;SDS011;6198;51.446;6.698;2022-10-16T05:07:53;3.73;;;2.20;;
12271;SDS011;6198;51.446;6.698;2022-10-16T05:10:19;3.73;;;2.00;;
12271;SDS011;6198;51.446;6.698;2022-10-16T05:12:45;5.20;;;2.00;;
12271;SDS011;6198;51.446;6.698;2022-10-16T05:15:11;3.53;;;2.00;;
12271;SDS011;6198;51.446;6.698;2022-10-16T05:17:37;2.17;;;1.90;;
12271;SDS011;6198;51.446;6.698;2022-10-16T05:20:03;5.83;;;2.40;;
12271;SDS011;6198;51.446;6.698;2022-10-16T05:22:29;3.27;;;2.00;;
12271;SDS011;6198;51.446;6.698;2022-10-16T05:24:55;2.53;;;2.00;;
12271;SDS011;6198;51.446;6.698;2022-10-16T05:27:21;6.90;;;2.30;;
12271;SDS011;6198;51.446;6.698;2022-10-16T05:29:48;5.27;;;2.37;;
12271;SDS011;6198;51.446;6.698;2022-10-16T05:32:14;4.53;;;2.40;;
12271;SDS011;6198;51.446;6.698;2022-10-16T05:34:40;4.43;;;2.50;;
12271;SDS011;6198;51.446;6.698;2022-10-16T05:37:06;4.03;;;2.33;;
12271;SDS011;6198;51.446;6.698;2022-10-16T05:39:33;5.50;;;2.60;;
12271;SDS011;6198;51.446;6.698;2022-10-16T05:41:58;5.30;;;2.37;;
12271;SDS011;6198;51.446;6.698;2022-10-16T05:44:24;4.80;;;2.47;;
12271;SDS011;6198;51.446;6.698;2022-10-16T05:46:50;5.33;;;2.30;;
12271;SDS011;6198;51.446;6.698;2022-10-16T05:49:16;4.53;;;2.90;;
12271;SDS011;6198;51.446;6.698;2022-10-16T05:51:42;3.83;;;2.13;;
12271;SDS011;6198;51.446;6.698;2022-10-16T05:54:08;2.57;;;2.37;;
12271;SDS011;6198;51.446;6.698;2022-10-16T05:56:34;4.53;;;2.70;;
12271;SDS011;6198;51.446;6.698;2022-10-16T05:59:00;3.90;;;2.97;;
12271;SDS011;6198;51.446;6.698;2022-10-16T06:01:26;5.63;;;2.13;;
12271;SDS011;6198;51.446;6.698;2022-10-16T06:03:52;6.40;;;2.43;;
12271;SDS011;6198;51.446;6.698;2022-10-16T06:06:20;3.97;;;2.73;;
12271;SDS011;6198;51.446;6.698;2022-10-16T06:08:47;7.83;;;3.27;;
12271;SDS011;6198;51.446;6.698;2022-10-16T06:11:17;5.63;;;3.07;;
12271;SDS011;6198;51.446;6.698;2022-10-16T06:13:43;6.23;;;3.00;;
12271;SDS011;6198;51.446;6.698;2022-10-16T06:16:10;4.07;;;2.60;;
12271;SDS011;6198;51.446;6.698;2022-10-16T06:18:37;6.03;;;2.53;;
12271;SDS011;6198;51.446;6.698;2022-10-16T06:21:06;6.83;;;3.10;;
12271;SDS011;6198;51.446;6.698;2022-10-16T06:23:33;4.63;;;2.43;;
12271;SDS011;6198;51.446;6.698;2022-10-16T06:26:06;4.70;;;2.47;;
12271;SDS011;6198;51.446;6.698;2022-10-16T06:28:32;4.13;;;2.50;;
12271;SDS011;6198;51.446;6.698;2022-10-16T06:30:58;3.53;;;2.53;;
12271;SDS011;6198;51.446;6.698;2022-10-16T06:33:24;4.47;;;2.63;;
12271;SDS011;6198;51.446;6.698;2022-10-16T06:35:50;5.83;;;2.37;;
12271;SDS011;6198;51.446;6.698;2022-10-16T06:38:16;3.60;;;2.90;;
12271;SDS011;6198;51.446;6.698;2022-10-16T06:40:42;2.60;;;2.40;;
12271;SDS011;6198;51.446;6.698;2022-10-16T06:43:08;5.80;;;3.10;;
12271;SDS011;6198;51.446;6.698;2022-10-16T06:45:34;4.63;;;2.97;;
12271;SDS011;6198;51.446;6.698;2022-10-16T06:48:00;5.20;;;3.33;;
12271;SDS011;6198;51.446;6.698;2022-10-16T06:50:26;8.43;;;3.60;;
12271;SDS011;6198;51.446;6.698;2022-10-16T06:52:52;7.83;;;3.73;;
12271;SDS011;6198;51.446;6.698;2022-10-16T06:55:18;6.70;;;3.40;;
12271;SDS011;6198;51.446;6.698;2022-10-16T06:57:46;7.43;;;3.93;;
12271;SDS011;6198;51.446;6.698;2022-10-16T07:00:13;4.57;;;3.70;;
12271;SDS011;6198;51.446;6.698;2022-10-16T07:02:39;5.70;;;4.03;;
12271;SDS011;6198;51.446;6.698;2022-10-16T07:05:05;6.85;;;3.60;;
12271;SDS011;6198;51.446;6.698;2022-10-16T07:07:31;5.57;;;3.80;;
12271;SDS011;6198;51.446;6.698;2022-10-16T07:09:57;7.07;;;3.83;;
12271;SDS011;6198;51.446;6.698;2022-10-16T07:12:23;6.43;;;4.00;;
12271;SDS011;6198;51.446;6.698;2022-10-16T07:14:49;9.50;;;4.30;;
12271;SDS011;6198;51.446;6.698;2022-10-16T07:17:17;4.97;;;4.47;;
12271;SDS011;6198;51.446;6.698;2022-10-16T07:19:43;8.73;;;5.50;;
12271;SDS011;6198;51.446;6.698;2022-10-16T07:22:09;8.83;;;5.80;;
12271;SDS011;6198;51.446;6.698;2022-10-16T07:24:34;5.93;;;4.17;;
12271;SDS011;6198;51.446;6.698;2022-10-16T07:27:01;11.30;;;7.60;;
12271;SDS011;6198;51.446;6.698;2022-10-16T07:29:27;7.93;;;3.53;;
12271;SDS011;6198;51.446;6.698;2022-10-16T07:31:53;7.27;;;3.50;;
12271;SDS011;6198;51.446;6.698;2022-10-16T07:34:19;8.40;;;3.90;;
12271;SDS011;6198;51.446;6.698;2022-10-16T07:36:49;4.10;;;3.40;;
12271;SDS011;6198;51.446;6.698;2022-10-16T07:39:16;5.20;;;3.50;;
12271;SDS011;6198;51.446;6.698;2022-10-16T07:41:42;4.47;;;3.50;;
12271;SDS011;6198;51.446;6.698;2022-10-16T07:44:07;4.87;;;2.83;;
12271;SDS011;6198;51.446;6.698;2022-10-16T07:46:34;4.67;;;4.10;;
12271;SDS011;6198;51.446;6.698;2022-10-16T07:49:01;10.03;;;4.60;;
12271;SDS011;6198;51.446;6.698;2022-10-16T07:51:27;7.73;;;4.93;;
12271;SDS011;6198;51.446;6.698;2022-10-16T07:53:53;8.30;;;7.50;;
12271;SDS011;6198;51.446;6.698;2022-10-16T07:56:20;7.43;;;3.43;;
12271;SDS011;6198;51.446;6.698;2022-10-16T07:58:46;3.93;;;2.93;;
12271;SDS011;6198;51.446;6.698;2022-10-16T08:01:15;4.03;;;2.70;;
12271;SDS011;6198;51.446;6.698;2022-10-16T08:03:44;3.97;;;2.40;;
12271;SDS011;6198;51.446;6.698;2022-10-16T08:06:10;2.60;;;2.30;;
12271;SDS011;6198;51.446;6.698;2022-10-16T08:08:36;2.97;;;2.43;;
12271;SDS011;6198;51.446;6.698;2022-10-16T08:11:02;4.90;;;2.63;;
12271;SDS011;6198;51.446;6.698;2022-10-16T08:13:29;4.17;;;2.10;;
12271;SDS011;6198;51.446;6.698;2022-10-16T08:15:55;2.77;;;2.20;;
12271;SDS011;6198;51.446;6.698;2022-10-16T08:18:21;3.23;;;2.10;;
12271;SDS011;6198;51.446;6.698;2022-10-16T08:20:47;4.97;;;2.47;;
12271;SDS011;6198;51.446;6.698;2022-10-16T08:23:13;4.03;;;2.20;;
12271;SDS011;6198;51.446;6.698;2022-10-16T08:25:40;3.10;;;2.50;;
12271;SDS011;6198;51.446;6.698;2022-10-16T08:28:07;5.50;;;2.53;;
12271;SDS011;6198;51.446;6.698;2022-10-16T08:30:33;4.63;;;2.20;;
12271;SDS011;6198;51.446;6.698;2022-10-16T08:32:59;2.83;;;2.30;;
12271;SDS011;6198;51.446;6.698;2022-10-16T08:35:25;5.53;;;2.77;;
12271;SDS011;6198;51.446;6.698;2022-10-16T08:37:51;3.10;;;2.10;;
12271;SDS011;6198;51.446;6.698;2022-10-16T08:40:18;4.23;;;1.90;;
12271;SDS011;6198;51.446;6.698;2022-10-16T08:45:41;4.93;;;2.10;;
12271;SDS011;6198;51.446;6.698;2022-10-16T08:48:27;4.20;;;1.80;;
12271;SDS011;6198;51.446;6.698;2022-10-16T08:50:55;2.00;;;1.80;;
12271;SDS011;6198;51.446;6.698;2022-10-16T08:53:29;4.93;;;2.07;;
12271;SDS011;6198;51.446;6.698;2022-10-16T08:55:56;5.00;;;1.87;;
12271;SDS011;6198;51.446;6.698;2022-10-16T08:58:26;6.43;;;1.90;;
12271;SDS011;6198;51.446;6.698;2022-10-16T09:00:53;2.00;;;1.80;;
12271;SDS011;6198;51.446;6.698;2022-10-16T09:08:55;5.17;;;1.87;;
12271;SDS011;6198;51.446;6.698;2022-10-16T09:11:34;3.70;;;2.03;;
12271;SDS011;6198;51.446;6.698;2022-10-16T09:16:32;2.57;;;1.70;;
12271;SDS011;6198;51.446;6.698;2022-10-16T09:19:01;2.93;;;1.83;;
12271;SDS011;6198;51.446;6.698;2022-10-16T09:21:30;2.90;;;2.20;;
12271;SDS011;6198;51.446;6.698;2022-10-16T09:23:57;1.87;;;1.47;;
12271;SDS011;6198;51.446;6.698;2022-10-16T09:26:24;1.60;;;1.50;;
12271;SDS011;6198;51.446;6.698;2022-10-16T09:28:51;3.10;;;1.60;;
12271;SDS011;6198;51.446;6.698;2022-10-16T09:31:18;9.60;;;1.90;;
12271;SDS011;6198;51.446;6.698;2022-10-16T09:33:47;3.60;;;1.83;;
12271;SDS011;6198;51.446;6.698;2022-10-16T09:36:13;7.93;;;1.80;;
12271;SDS011;6198;51.446;6.698;2022-10-16T09:38:39;6.53;;;1.77;;
12271;SDS011;6198;51.446;6.698;2022-10-16T09:41:23;7.57;;;1.60;;
12271;SDS011;6198;51.446;6.698;2022-10-16T09:43:57;4.33;;;1.70;;
12271;SDS011;6198;51.446;6.698;2022-10-16T09:48:57;3.07;;;1.60;;
12271;SDS011;6198;51.446;6.698;2022-10-16T09:51:34;5.07;;;1.70;;
12271;SDS011;6198;51.446;6.698;2022-10-16T09:54:01;2.17;;;1.47;;
12271;SDS011;6198;51.446;6.698;2022-10-16T09:56:29;3.50;;;1.70;;
12271;SDS011;6198;51.446;6.698;2022-10-16T09:58:56;3.53;;;1.50;;
12271;SDS011;6198;51.446;6.698;2022-10-16T10:01:25;3.00;;;1.43;;
12271;SDS011;6198;51.446;6.698;2022-10-16T10:03:55;1.80;;;1.50;;
12271;SDS011;6198;51.446;6.698;2022-10-16T10:06:26;3.17;;;1.77;;
12271;SDS011;6198;51.446;6.698;2022-10-16T10:08:57;3.80;;;1.70;;
12271;SDS011;6198;51.446;6.698;2022-10-16T10:11:36;4.03;;;1.70;;
12271;SDS011;6198;51.446;6.698;2022-10-16T10:14:06;3.27;;;1.70;;
12271;SDS011;6198;51.446;6.698;2022-10-16T10:16:32;3.40;;;1.70;;
12271;SDS011;6198;51.446;6.698;2022-10-16T10:19:01;2.83;;;1.30;;
12271;SDS011;6198;51.446;6.698;2022-10-16T10:21:27;3.77;;;1.70;;
12271;SDS011;6198;51.446;6.698;2022-10-16T10:23:56;3.80;;;1.60;;
12271;SDS011;6198;51.446;6.698;2022-10-16T10:26:23;2.97;;;1.53;;
12271;SDS011;6198;51.446;6.698;2022-10-16T10:37:09;3.57;;;1.40;;
12271;SDS011;6198;51.446;6.698;2022-10-16T10:39:41;2.33;;;1.40;;
12271;SDS011;6198;51.446;6.698;2022-10-16T10:45:02;2.27;;;1.53;;
12271;SDS011;6198;51.446;6.698;2022-10-16T10:55:57;2.60;;;1.30;;
12271;SDS011;6198;51.446;6.698;2022-10-16T11:03:31;3.50;;;1.40;;
12271;SDS011;6198;51.446;6.698;2022-10-16T11:11:31;2.90;;;1.80;;
12271;SDS011;6198;51.446;6.698;2022-10-16T11:16:51;11.07;;;6.70;;
12271;SDS011;6198;51.446;6.698;2022-10-16T11:24:42;1.60;;;1.20;;
12271;SDS011;6198;51.446;6.698;2022-10-16T11:27:09;1.63;;;1.23;;
12271;SDS011;6198;51.446;6.698;2022-10-16T11:29:41;3.30;;;1.50;;
12271;SDS011;6198;51.446;6.698;2022-10-16T11:32:15;4.73;;;1.40;;
12271;SDS011;6198;51.446;6.698;2022-10-16T11:34:47;3.23;;;1.33;;
12271;SDS011;6198;51.446;6.698;2022-10-16T11:37:21;3.67;;;1.73;;
12271;SDS011;6198;51.446;6.698;2022-10-16T11:39:50;8.43;;;5.60;;
12271;SDS011;6198;51.446;6.698;2022-10-16T11:42:16;6.67;;;2.80;;
12271;SDS011;6198;51.446;6.698;2022-10-16T11:44:55;9.37;;;6.27;;
12271;SDS011;6198;51.446;6.698;2022-10-16T11:47:26;11.50;;;8.90;;
12271;SDS011;6198;51.446;6.698;2022-10-16T11:51:17;3.07;;;1.60;;
12271;SDS011;6198;51.446;6.698;2022-10-16T11:53:50;10.10;;;1.60;;
12271;SDS011;6198;51.446;6.698;2022-10-16T11:56:17;3.20;;;1.40;;
12271;SDS011;6198;51.446;6.698;2022-10-16T12:01:30;4.40;;;2.37;;
12271;SDS011;6198;51.446;6.698;2022-10-16T12:09:15;5.77;;;2.13;;
12271;SDS011;6198;51.446;6.698;2022-10-16T12:11:44;2.67;;;1.60;;
12271;SDS011;6198;51.446;6.698;2022-10-16T12:16:50;5.63;;;1.87;;
12271;SDS011;6198;51.446;6.698;2022-10-16T12:19:17;3.13;;;1.70;;
12271;SDS011;6198;51.446;6.698;2022-10-16T12:21:43;3.07;;;1.73;;
12271;SDS011;6198;51.446;6.698;2022-10-16T12:24:31;2.17;;;1.30;;
12271;SDS011;6198;51.446;6.698;2022-10-16T12:26:57;2.13;;;1.40;;
12271;SDS011;6198;51.446;6.698;2022-10-16T12:29:34;4.77;;;1.70;;
12271;SDS011;6198;51.446;6.698;2022-10-16T12:32:00;2.00;;;1.40;;
12271;SDS011;6198;51.446;6.698;2022-10-16T12:34:28;3.13;;;1.40;;
12271;SDS011;6198;51.446;6.698;2022-10-16T12:36:55;4.57;;;1.70;;
12271;SDS011;6198;51.446;6.698;2022-10-16T12:39:23;5.43;;;1.33;;
12271;SDS011;6198;51.446;6.698;2022-10-16T12:42:00;4.63;;;1.60;;
12271;SDS011;6198;51.446;6.698;2022-10-16T12:44:26;2.17;;;1.63;;
12271;SDS011;6198;51.446;6.698;2022-10-16T12:46:57;2.17;;;1.40;;
12271;SDS011;6198;51.446;6.698;2022-10-16T12:49:30;3.40;;;1.70;;
12271;SDS011;6198;51.446;6.698;2022-10-16T12:51:57;5.97;;;1.30;;
12271;SDS011;6198;51.446;6.698;2022-10-16T12:54:26;4.40;;;1.30;;
12271;SDS011;6198;51.446;6.698;2022-10-16T12:59:42;2.73;;;1.60;;
12271;SDS011;6198;51.446;6.698;2022-10-16T13:07:40;2.17;;;1.60;;
12271;SDS011;6198;51.446;6.698;2022-10-16T13:10:14;5.23;;;2.03;;
12271;SDS011;6198;51.446;6.698;2022-10-16T13:12:47;6.60;;;1.80;;
12271;SDS011;6198;51.446;6.698;2022-10-16T13:23:36;3.33;;;1.43;;
12271;SDS011;6198;51.446;6.698;2022-10-16T13:28:31;5.57;;;1.53;;
12271;SDS011;6198;51.446;6.698;2022-10-16T13:30:58;3.20;;;1.43;;
12271;SDS011;6198;51.446;6.698;2022-10-16T13:33:35;3.10;;;1.43;;
12271;SDS011;6198;51.446;6.698;2022-10-16T13:36:02;1.67;;;1.20;;
12271;SDS011;6198;51.446;6.698;2022-10-16T13:38:32;7.80;;;1.60;;
12271;SDS011;6198;51.446;6.698;2022-10-16T13:41:03;2.80;;;1.30;;
12271;SDS011;6198;51.446;6.698;2022-10-16T13:43:39;4.37;;;2.00;;
12271;SDS011;6198;51.446;6.698;2022-10-16T13:46:11;2.10;;;1.77;;
12271;SDS011;6198;51.446;6.698;2022-10-16T13:48:38;2.20;;;1.47;;
12271;SDS011;6198;51.446;6.698;2022-10-16T13:51:14;2.37;;;1.40;;
12271;SDS011;6198;51.446;6.698;2022-10-16T13:53:40;5.13;;;1.67;;
12271;SDS011;6198;51.446;6.698;2022-10-16T13:56:09;3.27;;;1.67;;
12271;SDS011;6198;51.446;6.698;2022-10-16T13:58:35;3.03;;;1.50;;
12271;SDS011;6198;51.446;6.698;2022-10-16T14:01:03;2.97;;;1.50;;
12271;SDS011;6198;51.446;6.698;2022-10-16T14:03:30;3.63;;;1.80;;
12271;SDS011;6198;51.446;6.698;2022-10-16T14:06:00;1.70;;;1.30;;
12271;SDS011;6198;51.446;6.698;2022-10-16T14:08:27;2.67;;;1.60;;
12271;SDS011;6198;51.446;6.698;2022-10-16T14:10:55;2.73;;;1.70;;
12271;SDS011;6198;51.446;6.698;2022-10-16T14:13:27;2.43;;;1.57;;
12271;SDS011;6198;51.446;6.698;2022-10-16T14:15:54;3.00;;;1.60;;
12271;SDS011;6198;51.446;6.698;2022-10-16T14:18:24;2.77;;;1.67;;
12271;SDS011;6198;51.446;6.698;2022-10-16T14:20:51;5.03;;;2.30;;
12271;SDS011;6198;51.446;6.698;2022-10-16T14:25:46;4.13;;;1.60;;
12271;SDS011;6198;51.446;6.698;2022-10-16T14:28:17;3.47;;;1.70;;
12271;SDS011;6198;51.446;6.698;2022-10-16T14:30:51;4.87;;;2.17;;
12271;SDS011;6198;51.446;6.698;2022-10-16T14:33:21;4.37;;;1.87;;
12271;SDS011;6198;51.446;6.698;2022-10-16T14:35:56;3.90;;;1.77;;
12271;SDS011;6198;51.446;6.698;2022-10-16T14:38:24;3.53;;;1.50;;
12271;SDS011;6198;51.446;6.698;2022-10-16T14:40:50;2.77;;;1.53;;
12271;SDS011;6198;51.446;6.698;2022-10-16T14:43:20;1.87;;;1.50;;
12271;SDS011;6198;51.446;6.698;2022-10-16T14:45:50;3.03;;;1.50;;
12271;SDS011;6198;51.446;6.698;2022-10-16T14:48:17;3.67;;;1.50;;
12271;SDS011;6198;51.446;6.698;2022-10-16T14:50:43;4.37;;;2.17;;
12271;SDS011;6198;51.446;6.698;2022-10-16T14:53:13;5.73;;;1.80;;
12271;SDS011;6198;51.446;6.698;2022-10-16T14:55:40;2.73;;;1.70;;
12271;SDS011;6198;51.446;6.698;2022-10-16T14:58:13;5.50;;;4.07;;
12271;SDS011;6198;51.446;6.698;2022-10-16T15:00:39;3.80;;;1.70;;
12271;SDS011;6198;51.446;6.698;2022-10-16T15:03:05;3.50;;;1.67;;
12271;SDS011;6198;51.446;6.698;2022-10-16T15:05:31;2.13;;;1.47;;
12271;SDS011;6198;51.446;6.698;2022-10-16T15:07:57;5.43;;;1.77;;
12271;SDS011;6198;51.446;6.698;2022-10-16T15:10:24;1.83;;;1.47;;
12271;SDS011;6198;51.446;6.698;2022-10-16T15:12:51;4.00;;;1.40;;
12271;SDS011;6198;51.446;6.698;2022-10-16T15:17:49;2.97;;;1.43;;
12271;SDS011;6198;51.446;6.698;2022-10-16T15:20:21;4.93;;;1.87;;
12271;SDS011;6198;51.446;6.698;2022-10-16T15:22:47;5.20;;;1.67;;
12271;SDS011;6198;51.446;6.698;2022-10-16T15:25:32;4.63;;;2.20;;
12271;SDS011;6198;51.446;6.698;2022-10-16T15:27:59;5.03;;;2.30;;
12271;SDS011;6198;51.446;6.698;2022-10-16T15:30:26;2.37;;;1.80;;
12271;SDS011;6198;51.446;6.698;2022-10-16T15:32:52;4.63;;;2.13;;
12271;SDS011;6198;51.446;6.698;2022-10-16T15:35:18;5.10;;;2.27;;
12271;SDS011;6198;51.446;6.698;2022-10-16T15:37:46;3.63;;;1.90;;
12271;SDS011;6198;51.446;6.698;2022-10-16T15:40:12;4.73;;;1.97;;
12271;SDS011;6198;51.446;6.698;2022-10-16T15:42:38;4.33;;;2.07;;
12271;SDS011;6198;51.446;6.698;2022-10-16T15:45:04;4.17;;;1.73;;
12271;SDS011;6198;51.446;6.698;2022-10-16T15:47:31;3.63;;;1.70;;
12271;SDS011;6198;51.446;6.698;2022-10-16T15:49:57;2.27;;;1.77;;
12271;SDS011;6198;51.446;6.698;2022-10-16T15:52:23;3.80;;;1.80;;
12271;SDS011;6198;51.446;6.698;2022-10-16T15:54:49;3.23;;;1.57;;
12271;SDS011;6198;51.446;6.698;2022-10-16T15:57:15;2.47;;;1.53;;
12271;SDS011;6198;51.446;6.698;2022-10-16T15:59:41;6.53;;;2.03;;
12271;SDS011;6198;51.446;6.698;2022-10-16T16:02:08;4.87;;;1.90;;
12271;SDS011;6198;51.446;6.698;2022-10-16T16:04:34;6.80;;;2.03;;
12271;SDS011;6198;51.446;6.698;2022-10-16T16:07:00;4.87;;;2.73;;
12271;SDS011;6198;51.446;6.698;2022-10-16T16:09:28;8.90;;;2.30;;
12271;SDS011;6198;51.446;6.698;2022-10-16T16:11:54;4.13;;;1.87;;
12271;SDS011;6198;51.446;6.698;2022-10-16T16:14:20;5.43;;;1.70;;
12271;SDS011;6198;51.446;6.698;2022-10-16T16:16:46;9.77;;;4.37;;
12271;SDS011;6198;51.446;6.698;2022-10-16T16:19:12;4.03;;;1.77;;
12271;SDS011;6198;51.446;6.698;2022-10-16T16:21:41;4.77;;;2.90;;
12271;SDS011;6198;51.446;6.698;2022-10-16T16:24:06;6.57;;;2.60;;
12271;SDS011;6198;51.446;6.698;2022-10-16T16:26:33;5.63;;;3.17;;
12271;SDS011;6198;51.446;6.698;2022-10-16T16:29:01;6.03;;;3.30;;
12271;SDS011;6198;51.446;6.698;2022-10-16T16:31:28;9.40;;;4.80;;
12271;SDS011;6198;51.446;6.698;2022-10-16T16:33:55;8.47;;;3.63;;
12271;SDS011;6198;51.446;6.698;2022-10-16T16:36:21;10.03;;;2.97;;
12271;SDS011;6198;51.446;6.698;2022-10-16T16:38:48;6.17;;;2.80;;
12271;SDS011;6198;51.446;6.698;2022-10-16T16:41:14;6.57;;;2.77;;
12271;SDS011;6198;51.446;6.698;2022-10-16T16:43:41;3.03;;;2.20;;
12271;SDS011;6198;51.446;6.698;2022-10-16T16:46:07;3.97;;;2.03;;
12271;SDS011;6198;51.446;6.698;2022-10-16T16:48:33;6.10;;;2.10;;